Time;durP1;ratioP1;P1;durP2;ratioP2;P2;SDS_P1;SDS_P2;PMS_P1;PMS_P2;Temp;Humidity;BMP_temperature;BMP_pressure;BME280_temperature;BME280_humidity;BME280_pressure;Samples;Min_cycle;Max_cycle;Signal;HPM_P1;HPM_P2
2022/03/21 00:01:30;;;;;;;10.45;9.45;;;5.20;43.90;;;;;;648167;221;26569;-68
2022/03/21 00:03:58;;;;;;;9.38;8.48;;;5.20;44.10;;;;;;647170;221;26765;-68
2022/03/21 00:06:25;;;;;;;9.68;8.75;;;5.20;44.10;;;;;;621727;229;27088;-67
2022/03/21 00:08:53;;;;;;;10.07;9.07;;;5.20;44.00;;;;;;620299;232;26665;-68
2022/03/21 00:11:21;;;;;;;10.48;9.38;;;5.20;44.10;;;;;;615804;229;26572;-68
2022/03/21 00:13:53;;;;;;;9.80;8.90;;;5.10;44.30;;;;;;645300;221;26483;-68
2022/03/21 00:16:17;;;;;;;10.25;8.90;;;5.10;44.20;;;;;;641893;221;26756;-67
2022/03/21 00:18:44;;;;;;;9.32;8.43;;;5.00;44.30;;;;;;633868;224;26522;-68
2022/03/21 00:21:12;;;;;;;9.82;8.82;;;5.00;44.50;;;;;;633638;225;27194;-68
2022/03/21 00:23:40;;;;;;;10.43;9.32;;;4.90;44.50;;;;;;633677;225;26483;-66
2022/03/21 00:26:07;;;;;;;12.18;8.77;;;4.90;44.70;;;;;;647007;221;26528;-69
2022/03/21 00:28:34;;;;;;;10.13;8.52;;;4.90;44.70;;;;;;638447;225;26576;-68
2022/03/21 00:31:01;;;;;;;15.90;9.60;;;4.90;44.90;;;;;;642273;221;26510;-69
2022/03/21 00:33:29;;;;;;;9.32;8.30;;;4.90;44.80;;;;;;634566;225;26785;-69
2022/03/21 00:35:58;;;;;;;12.10;9.07;;;4.80;45.40;;;;;;620775;230;26608;-69
2022/03/21 00:38:24;;;;;;;8.75;7.85;;;4.80;45.30;;;;;;636027;226;26827;-70
2022/03/21 00:40:51;;;;;;;10.48;8.23;;;4.70;45.70;;;;;;636841;225;26567;-69
2022/03/21 00:43:21;;;;;;;10.60;8.93;;;4.70;45.30;;;;;;636634;225;26932;-69
2022/03/21 00:45:48;;;;;;;11.73;8.18;;;4.70;45.60;;;;;;646527;221;26545;-69
2022/03/21 00:48:16;;;;;;;10.43;8.02;;;4.70;45.20;;;;;;639762;221;26488;-69
2022/03/21 00:50:44;;;;;;;10.75;8.05;;;4.60;45.50;;;;;;620782;230;26654;-67
2022/03/21 00:53:11;;;;;;;9.75;8.55;;;4.60;45.50;;;;;;622918;229;26654;-69
2022/03/21 00:55:39;;;;;;;8.93;7.72;;;4.60;45.50;;;;;;647396;221;26812;-69
2022/03/21 00:58:06;;;;;;;9.95;8.80;;;4.70;45.50;;;;;;644154;221;26511;-69
2022/03/21 01:00:33;;;;;;;9.23;7.20;;;4.60;45.30;;;;;;639306;223;26946;-69
2022/03/21 01:03:01;;;;;;;9.23;8.30;;;4.60;45.30;;;;;;646691;221;26502;-73
2022/03/21 01:05:29;;;;;;;8.75;7.85;;;4.60;45.50;;;;;;634923;225;26611;-69
2022/03/21 01:07:57;;;;;;;9.05;7.35;;;4.50;45.70;;;;;;616942;233;26571;-69
2022/03/21 01:10:24;;;;;;;8.48;7.50;;;4.50;45.50;;;;;;630220;227;26726;-69
2022/03/21 01:12:51;;;;;;;9.45;7.47;;;4.50;45.70;;;;;;629368;225;26483;-69
2022/03/21 01:15:18;;;;;;;8.18;7.10;;;4.40;45.90;;;;;;631801;225;26887;-69
2022/03/21 01:17:46;;;;;;;9.10;7.70;;;4.30;46.00;;;;;;625298;226;26524;-69
2022/03/21 01:20:13;;;;;;;8.27;7.55;;;4.30;46.10;;;;;;638264;224;26477;-69
2022/03/21 01:22:41;;;;;;;10.30;7.53;;;4.20;46.30;;;;;;640917;221;26518;-69
2022/03/21 01:25:10;;;;;;;8.60;7.75;;;4.10;46.60;;;;;;639415;221;26579;-68
2022/03/21 01:27:36;;;;;;;9.50;8.07;;;4.10;46.30;;;;;;638585;223;26539;-68
2022/03/21 01:30:03;;;;;;;8.82;7.62;;;4.20;46.30;;;;;;642034;223;26561;-68
2022/03/21 01:32:32;;;;;;;7.87;6.90;;;4.20;46.30;;;;;;630892;225;26536;-68
2022/03/21 01:34:59;;;;;;;8.15;7.35;;;4.20;46.50;;;;;;618296;230;26569;-68
2022/03/21 01:37:26;;;;;;;10.32;7.43;;;4.20;46.10;;;;;;650131;221;26754;-70
2022/03/21 01:39:53;;;;;;;8.98;7.35;;;4.20;46.30;;;;;;633893;225;26532;-70
2022/03/21 01:42:20;;;;;;;8.13;7.30;;;4.20;46.20;;;;;;627638;225;27200;-70
2022/03/21 01:44:50;;;;;;;8.23;7.37;;;4.20;46.50;;;;;;626415;228;26599;-70
2022/03/21 01:47:17;;;;;;;7.68;6.97;;;4.10;46.40;;;;;;631009;226;26475;-68
2022/03/21 01:49:45;;;;;;;9.07;6.82;;;4.00;46.70;;;;;;636973;225;26717;-68
2022/03/21 01:52:11;;;;;;;7.90;7.10;;;4.10;46.70;;;;;;631329;226;26551;-68
2022/03/21 01:57:12;;;;;;;7.87;7.18;;;4.10;46.70;;;;;;621204;226;26508;-68
2022/03/21 01:59:41;;;;;;;8.10;7.30;;;4.00;46.40;;;;;;625117;230;26630;-68
2022/03/21 02:02:08;;;;;;;8.40;7.60;;;4.00;46.70;;;;;;643863;221;27132;-68
2022/03/21 02:04:35;;;;;;;8.07;7.18;;;4.00;47.00;;;;;;645992;221;26521;-70
2022/03/21 02:07:04;;;;;;;7.68;6.97;;;4.00;46.80;;;;;;618453;230;26574;-68
2022/03/21 02:09:31;;;;;;;8.55;6.62;;;3.90;46.70;;;;;;649221;221;26571;-69
2022/03/21 02:11:58;;;;;;;9.80;7.53;;;3.90;46.80;;;;;;641105;221;26771;-69
2022/03/21 02:14:25;;;;;;;6.95;6.35;;;3.90;46.80;;;;;;621307;230;26622;-69
2022/03/21 02:16:52;;;;;;;7.97;7.18;;;3.90;46.80;;;;;;618689;230;26804;-69
2022/03/21 02:19:29;;;;;;;7.85;7.15;;;4.00;46.80;;;;;;648660;221;26569;-68
2022/03/21 02:22:01;;;;;;;7.97;7.18;;;3.90;46.80;;;;;;620686;229;26539;-67
2022/03/21 02:24:35;;;;;;;7.32;6.70;;;4.00;46.70;;;;;;616691;231;26829;-68
2022/03/21 02:27:02;;;;;;;7.82;6.62;;;3.90;46.70;;;;;;630649;225;26919;-67
2022/03/21 02:29:29;;;;;;;7.75;7.05;;;3.80;46.90;;;;;;641073;221;26473;-70
2022/03/21 02:31:58;;;;;;;8.07;7.28;;;3.80;46.90;;;;;;646230;223;26481;-69
2022/03/21 02:34:25;;;;;;;7.32;6.62;;;3.80;47.00;;;;;;648425;221;26538;-70
2022/03/21 02:36:53;;;;;;;7.78;7.07;;;3.80;47.00;;;;;;633419;225;26571;-69
2022/03/21 02:39:20;;;;;;;7.47;6.78;;;3.70;47.10;;;;;;633256;225;26422;-71
2022/03/21 02:41:48;;;;;;;8.43;7.62;;;3.70;47.30;;;;;;632566;225;26689;-70
2022/03/21 02:44:15;;;;;;;8.13;7.30;;;3.70;47.20;;;;;;632066;227;26498;-69
2022/03/21 02:46:43;;;;;;;7.40;6.70;;;3.60;47.20;;;;;;634833;225;26477;-70
2022/03/21 02:49:10;;;;;;;8.43;7.35;;;3.60;47.20;;;;;;635120;225;26474;-68
2022/03/21 02:51:38;;;;;;;7.78;7.07;;;3.60;47.40;;;;;;649781;221;26519;-68
2022/03/21 02:54:05;;;;;;;7.18;6.50;;;3.50;47.30;;;;;;637611;225;26857;-70
2022/03/21 02:56:32;;;;;;;8.30;7.47;;;3.50;47.40;;;;;;645288;221;26496;-67
2022/03/21 02:58:59;;;;;;;8.63;7.15;;;3.50;47.50;;;;;;649488;221;26558;-69
2022/03/21 03:01:27;;;;;;;7.75;6.87;;;3.50;47.60;;;;;;634422;225;26538;-69
2022/03/21 03:03:55;;;;;;;7.45;6.75;;;3.50;47.90;;;;;;615066;234;26528;-68
2022/03/21 03:06:22;;;;;;;8.27;7.47;;;3.50;47.50;;;;;;615426;230;27219;-68
2022/03/21 03:08:50;;;;;;;7.45;6.70;;;3.50;47.40;;;;;;642545;221;26520;-68
2022/03/21 03:11:17;;;;;;;7.55;6.85;;;3.50;47.50;;;;;;638282;221;26728;-68
2022/03/21 03:13:45;;;;;;;8.73;7.00;;;3.50;47.40;;;;;;638224;223;26485;-69
2022/03/21 03:16:12;;;;;;;7.62;6.62;;;3.60;47.50;;;;;;641232;221;27185;-69
2022/03/21 03:18:44;;;;;;;7.60;6.90;;;3.40;47.20;;;;;;649583;221;26503;-69
2022/03/21 03:21:06;;;;;;;8.00;7.20;;;3.40;47.40;;;;;;635322;225;26590;-68
2022/03/21 03:23:34;;;;;;;7.72;7.03;;;3.30;47.70;;;;;;627192;229;26512;-67
2022/03/21 03:26:01;;;;;;;8.00;7.20;;;3.30;47.70;;;;;;617982;230;26684;-68
2022/03/21 03:28:29;;;;;;;7.43;6.72;;;3.30;47.70;;;;;;617659;229;26619;-68
2022/03/21 03:30:56;;;;;;;7.68;6.95;;;3.30;47.80;;;;;;651341;221;26928;-68
2022/03/21 03:33:23;;;;;;;7.37;6.62;;;3.30;47.80;;;;;;634242;225;26593;-68
2022/03/21 03:35:51;;;;;;;8.07;7.22;;;3.30;48.00;;;;;;631342;225;26502;-67
2022/03/21 03:38:18;;;;;;;7.62;6.93;;;3.20;47.90;;;;;;650578;221;26790;-67
2022/03/21 03:40:46;;;;;;;7.93;7.15;;;3.20;48.20;;;;;;638378;225;26520;-69
2022/03/21 03:43:15;;;;;;;7.50;6.80;;;3.20;48.10;;;;;;650462;221;26564;-69
2022/03/21 03:45:42;;;;;;;8.18;7.22;;;3.20;48.10;;;;;;632776;225;26797;-68
2022/03/21 03:48:09;;;;;;;8.25;7.40;;;3.30;47.90;;;;;;616133;233;26604;-68
2022/03/21 03:50:37;;;;;;;7.90;7.15;;;3.20;48.00;;;;;;629458;227;26434;-68
2022/03/21 03:53:05;;;;;;;7.72;6.93;;;3.20;47.80;;;;;;633610;225;26518;-68
2022/03/21 03:55:32;;;;;;;7.95;7.15;;;3.20;47.80;;;;;;650522;221;26511;-68
2022/03/21 03:58:00;;;;;;;8.77;7.22;;;3.20;47.80;;;;;;638437;225;26689;-68
2022/03/21 04:00:27;;;;;;;7.93;7.10;;;3.10;47.90;;;;;;646456;221;26519;-66
2022/03/21 04:05:27;;;;;;;7.95;7.15;;;3.10;47.90;;;;;;640585;224;26500;-66
2022/03/21 04:07:55;;;;;;;8.60;7.28;;;3.10;47.90;;;;;;638105;225;26484;-66
2022/03/21 04:10:22;;;;;;;18.33;7.93;;;3.10;48.30;;;;;;634570;225;26524;-64
2022/03/21 04:12:50;;;;;;;9.65;7.43;;;3.10;48.20;;;;;;650195;221;26805;-64
2022/03/21 04:15:17;;;;;;;8.15;7.35;;;3.00;48.10;;;;;;638000;225;26549;-64
2022/03/21 04:17:44;;;;;;;8.40;7.57;;;3.00;48.30;;;;;;647744;221;26760;-64
2022/03/21 04:20:12;;;;;;;10.23;7.80;;;2.90;48.10;;;;;;638120;225;26493;-65
2022/03/21 04:22:40;;;;;;;8.65;7.22;;;2.80;48.10;;;;;;638260;223;26488;-65
2022/03/21 04:25:11;;;;;;;8.55;7.12;;;2.80;48.80;;;;;;640165;221;26573;-65
2022/03/21 04:27:39;;;;;;;8.57;7.35;;;2.80;48.30;;;;;;640035;222;26525;-65
2022/03/21 04:30:06;;;;;;;9.88;7.03;;;2.80;48.30;;;;;;638381;221;26765;-64
2022/03/21 04:32:34;;;;;;;9.60;7.65;;;2.80;47.80;;;;;;647865;221;26788;-64
2022/03/21 04:35:01;;;;;;;8.38;7.03;;;2.80;48.30;;;;;;639143;221;26533;-64
2022/03/21 04:37:28;;;;;;;16.02;7.32;;;2.80;48.20;;;;;;627225;229;26865;-65
2022/03/21 04:39:56;;;;;;;8.85;7.30;;;2.70;48.30;;;;;;623082;229;26525;-65
2022/03/21 04:42:24;;;;;;;7.62;6.75;;;2.80;48.60;;;;;;624297;230;26525;-65
2022/03/21 04:44:51;;;;;;;8.38;7.12;;;2.80;48.60;;;;;;628275;227;26561;-65
2022/03/21 04:47:19;;;;;;;8.18;6.93;;;2.80;48.30;;;;;;628162;229;26520;-65
2022/03/21 04:49:47;;;;;;;8.85;6.78;;;2.70;48.10;;;;;;623494;231;26560;-65
2022/03/21 04:52:14;;;;;;;8.80;6.75;;;2.70;48.10;;;;;;623252;231;26647;-66
2022/03/21 04:54:41;;;;;;;7.85;6.87;;;2.70;48.10;;;;;;627828;227;26563;-66
2022/03/21 04:57:10;;;;;;;8.73;6.75;;;2.70;48.00;;;;;;626868;229;26813;-66
2022/03/21 04:59:36;;;;;;;7.18;6.45;;;2.70;48.10;;;;;;628325;229;26531;-66
2022/03/21 05:02:04;;;;;;;7.72;6.75;;;2.70;48.30;;;;;;638462;225;26550;-65
2022/03/21 05:04:32;;;;;;;7.20;6.50;;;2.70;48.20;;;;;;627551;229;26632;-65
2022/03/21 05:07:00;;;;;;;7.10;6.40;;;2.70;48.10;;;;;;623037;231;26626;-65
2022/03/21 05:09:29;;;;;;;7.65;6.60;;;2.70;48.10;;;;;;623036;229;26627;-65
2022/03/21 05:11:56;;;;;;;7.93;6.40;;;2.70;48.10;;;;;;627568;229;26603;-66
2022/03/21 05:14:23;;;;;;;7.45;6.72;;;2.70;48.30;;;;;;616068;233;26796;-67
2022/03/21 05:16:50;;;;;;;6.93;6.30;;;2.70;48.20;;;;;;627369;229;26595;-66
2022/03/21 05:19:18;;;;;;;10.48;7.00;;;2.70;48.40;;;;;;622792;231;26827;-66
2022/03/21 05:21:45;;;;;;;8.05;7.00;;;2.60;48.40;;;;;;622786;231;26558;-66
2022/03/21 05:31:52;;;;;;;6.45;5.93;;;2.70;48.40;;;;;;622821;231;27227;-64
2022/03/21 05:36:53;;;;;;;7.18;6.25;;;2.60;48.30;;;;;;626260;230;26508;-65
2022/03/21 05:39:20;;;;;;;7.07;6.40;;;2.60;48.80;;;;;;628058;229;26901;-65
2022/03/21 05:41:48;;;;;;;6.65;6.05;;;2.60;48.70;;;;;;638221;225;26507;-65
2022/03/21 05:44:14;;;;;;;6.78;6.07;;;2.60;48.30;;;;;;638004;225;26753;-60
2022/03/21 05:46:42;;;;;;;7.00;6.30;;;2.50;48.50;;;;;;638223;225;26748;-60
2022/03/21 05:49:10;;;;;;;6.72;5.95;;;2.60;48.50;;;;;;638180;225;26496;-61
2022/03/21 05:51:38;;;;;;;6.90;6.20;;;2.60;48.30;;;;;;638720;223;26541;-61
2022/03/21 05:54:08;;;;;;;7.03;6.03;;;2.60;48.30;;;;;;639702;224;26516;-61
2022/03/21 05:56:34;;;;;;;6.65;6.05;;;2.60;48.40;;;;;;639258;225;26848;-61
2022/03/21 06:00:20;;;;;;;6.43;5.82;;;2.70;48.90;;;;;;639096;225;26590;-61
2022/03/21 06:01:28;;;;;;;7.05;6.25;;;2.80;48.20;;;;;;636799;225;26754;-61
2022/03/21 06:03:55;;;;;;;6.97;6.28;;;2.80;48.20;;;;;;638804;225;26496;-60
2022/03/21 06:06:23;;;;;;;6.60;5.97;;;2.90;48.10;;;;;;638890;225;26539;-60
2022/03/21 06:08:51;;;;;;;6.72;6.12;;;2.90;48.10;;;;;;638763;225;26519;-61
2022/03/21 06:11:19;;;;;;;6.90;6.07;;;3.00;48.00;;;;;;638498;224;26591;-61
2022/03/21 06:13:47;;;;;;;6.72;6.10;;;3.20;47.40;;;;;;638475;225;26562;-60
2022/03/21 06:16:14;;;;;;;7.32;6.50;;;3.20;47.40;;;;;;638513;225;26547;-61
2022/03/21 06:18:41;;;;;;;6.95;6.25;;;3.20;47.30;;;;;;638557;225;26501;-61
2022/03/21 06:21:08;;;;;;;6.93;6.10;;;3.30;47.40;;;;;;638521;224;26794;-61
2022/03/21 06:23:35;;;;;;;6.50;5.90;;;3.40;47.60;;;;;;638483;225;26509;-61
2022/03/21 06:26:03;;;;;;;7.57;5.80;;;3.40;47.20;;;;;;638332;225;27122;-61
2022/03/21 06:28:30;;;;;;;6.72;5.57;;;3.50;47.40;;;;;;638190;225;26530;-61
2022/03/21 06:30:58;;;;;;;6.85;6.12;;;3.50;47.10;;;;;;638125;225;26496;-61
2022/03/21 06:33:25;;;;;;;6.22;5.62;;;3.50;47.10;;;;;;638183;225;27143;-62
2022/03/21 06:35:52;;;;;;;6.68;6.00;;;3.60;47.90;;;;;;638138;225;26527;-60
2022/03/21 06:38:20;;;;;;;7.20;6.50;;;3.50;47.30;;;;;;638089;225;26745;-61
2022/03/21 06:40:47;;;;;;;8.57;6.53;;;3.60;47.50;;;;;;638154;225;26484;-61
2022/03/21 06:43:16;;;;;;;7.00;6.25;;;3.70;47.30;;;;;;638160;225;26504;-61
2022/03/21 06:45:43;;;;;;;8.57;6.05;;;3.70;47.10;;;;;;638154;225;26528;-60
2022/03/21 06:48:11;;;;;;;8.23;6.43;;;3.80;46.70;;;;;;638145;225;26748;-62
2022/03/21 06:50:38;;;;;;;8.07;6.72;;;3.80;46.70;;;;;;638252;225;27110;-61
2022/03/21 06:53:06;;;;;;;6.20;5.60;;;3.90;47.00;;;;;;638177;225;26507;-62
2022/03/21 06:55:33;;;;;;;10.30;6.85;;;4.00;46.30;;;;;;638171;225;26789;-62
2022/03/21 06:58:03;;;;;;;11.85;8.93;;;4.20;46.10;;;;;;638170;225;26495;-62
2022/03/21 07:00:29;;;;;;;11.15;10.00;;;4.20;45.90;;;;;;638550;225;26472;-62
2022/03/21 07:02:57;;;;;;;15.88;12.02;;;4.30;45.80;;;;;;627904;227;26506;-62
2022/03/21 07:05:26;;;;;;;15.82;11.10;;;4.30;45.80;;;;;;624714;230;26549;-61
2022/03/21 07:07:52;;;;;;;12.68;10.65;;;4.30;45.70;;;;;;628663;229;26510;-60
2022/03/21 07:10:19;;;;;;;12.27;10.70;;;4.50;45.50;;;;;;624002;231;26516;-61
2022/03/21 07:12:46;;;;;;;12.40;10.05;;;4.50;45.50;;;;;;628823;225;26711;-61
2022/03/21 07:15:15;;;;;;;11.55;9.30;;;4.80;45.20;;;;;;632902;225;26564;-61
2022/03/21 07:17:43;;;;;;;10.00;8.77;;;5.00;44.90;;;;;;620078;229;26567;-61
2022/03/21 07:20:11;;;;;;;9.82;8.82;;;5.00;44.90;;;;;;645455;221;27149;-62
2022/03/21 07:22:39;;;;;;;11.65;8.90;;;5.10;44.90;;;;;;630360;225;26612;-62
2022/03/21 07:25:06;;;;;;;10.95;8.48;;;5.20;44.60;;;;;;641151;221;26545;-61
2022/03/21 07:27:36;;;;;;;10.23;8.85;;;5.30;44.30;;;;;;639068;221;26568;-61
2022/03/21 07:30:03;;;;;;;15.98;8.52;;;5.30;43.80;;;;;;643320;221;26506;-62
2022/03/21 07:32:30;;;;;;;11.25;8.80;;;5.50;43.60;;;;;;618262;230;26631;-61
2022/03/21 07:34:58;;;;;;;9.88;8.23;;;5.60;43.10;;;;;;639186;221;26782;-60
2022/03/21 07:37:25;;;;;;;11.07;7.95;;;5.70;42.90;;;;;;639063;221;26544;-61
2022/03/21 07:39:52;;;;;;;10.77;8.20;;;5.80;42.50;;;;;;636531;225;26851;-63
2022/03/21 07:42:20;;;;;;;8.75;7.68;;;5.90;42.40;;;;;;622523;230;26782;-59
2022/03/21 07:47:20;;;;;;;8.20;6.85;;;6.10;41.60;;;;;;648324;221;26514;-65
2022/03/21 07:49:48;;;;;;;30.80;11.85;;;6.30;41.60;;;;;;643604;221;26507;-60
2022/03/21 07:52:18;;;;;;;80.82;20.45;;;6.30;41.50;;;;;;638089;223;26490;-60
2022/03/21 07:54:45;;;;;;;87.47;22.60;;;6.30;41.40;;;;;;645191;221;26533;-60
2022/03/21 07:57:12;;;;;;;112.82;29.00;;;6.40;41.10;;;;;;629200;225;26771;-61
2022/03/21 07:59:40;;;;;;;113.07;30.70;;;6.60;41.00;;;;;;631748;227;26537;-61
2022/03/21 08:02:08;;;;;;;84.78;23.48;;;6.60;41.00;;;;;;622757;226;26524;-61
2022/03/21 08:04:36;;;;;;;64.75;19.35;;;6.60;41.10;;;;;;632011;225;26659;-62
2022/03/21 08:07:04;;;;;;;80.93;21.60;;;6.70;40.80;;;;;;627497;225;26544;-62
2022/03/21 08:09:32;;;;;;;91.95;21.52;;;6.80;40.70;;;;;;628078;227;26580;-61
2022/03/21 08:12:02;;;;;;;71.82;20.00;;;6.90;40.70;;;;;;632625;227;26514;-64
2022/03/21 08:14:28;;;;;;;57.97;17.60;;;6.90;40.70;;;;;;622202;230;26636;-63
2022/03/21 08:16:57;;;;;;;66.18;19.50;;;7.00;40.30;;;;;;617248;232;26559;-62
2022/03/21 08:19:24;;;;;;;66.25;19.83;;;7.00;40.30;;;;;;629837;227;26514;-63
2022/03/21 08:21:52;;;;;;;52.20;17.70;;;7.10;40.50;;;;;;633202;227;26799;-63
2022/03/21 08:24:19;;;;;;;33.53;12.77;;;7.20;40.30;;;;;;632125;223;27062;-63
2022/03/21 08:26:47;;;;;;;19.48;11.15;;;7.30;39.70;;;;;;631061;225;26622;-62
2022/03/21 08:29:15;;;;;;;10.27;9.02;;;7.40;39.20;;;;;;635542;225;26651;-62
2022/03/21 08:31:42;;;;;;;12.45;8.30;;;7.40;39.20;;;;;;650133;221;26594;-62
2022/03/21 08:34:09;;;;;;;13.88;8.80;;;7.50;39.50;;;;;;637286;225;26828;-63
2022/03/21 08:36:37;;;;;;;13.13;8.82;;;7.60;39.50;;;;;;649446;221;26516;-62
2022/03/21 08:39:04;;;;;;;14.13;9.45;;;7.70;38.90;;;;;;637700;225;26713;-63
2022/03/21 08:41:33;;;;;;;12.18;8.95;;;7.90;39.00;;;;;;649694;221;26500;-63
2022/03/21 08:44:01;;;;;;;10.82;8.32;;;7.90;38.60;;;;;;638177;225;26451;-63
2022/03/21 08:46:29;;;;;;;10.13;9.07;;;7.90;38.60;;;;;;650393;221;26482;-63
2022/03/21 08:51:29;;;;;;;9.80;8.38;;;8.00;38.40;;;;;;650140;221;26799;-63
2022/03/21 08:53:56;;;;;;;11.80;9.10;;;8.10;38.00;;;;;;637774;225;26512;-63
2022/03/21 08:56:27;;;;;;;10.73;8.82;;;8.10;38.30;;;;;;649847;221;26543;-63
2022/03/21 08:58:52;;;;;;;11.27;8.68;;;8.30;37.90;;;;;;637615;225;26512;-63
2022/03/21 09:01:21;;;;;;;11.18;8.95;;;8.40;37.90;;;;;;649836;221;26558;-63
2022/03/21 09:03:49;;;;;;;13.02;8.50;;;8.40;37.50;;;;;;637766;225;26488;-63
2022/03/21 09:06:16;;;;;;;10.15;8.52;;;8.40;37.50;;;;;;649751;221;26542;-63
2022/03/21 09:08:43;;;;;;;11.98;9.43;;;8.50;37.30;;;;;;625830;230;26637;-61
2022/03/21 09:11:11;;;;;;;9.68;8.77;;;8.60;37.30;;;;;;649755;221;26755;-63
2022/03/21 09:13:38;;;;;;;10.63;9.52;;;8.70;37.00;;;;;;637737;225;26710;-63
2022/03/21 09:16:06;;;;;;;9.00;8.20;;;8.90;36.10;;;;;;649773;221;26570;-62
2022/03/21 09:18:34;;;;;;;8.93;8.02;;;8.90;35.70;;;;;;637774;225;26521;-63
2022/03/21 09:21:02;;;;;;;11.18;9.02;;;8.90;35.90;;;;;;649788;221;26893;-62
2022/03/21 09:23:29;;;;;;;9.18;8.27;;;8.90;36.00;;;;;;637706;225;26721;-63
2022/03/21 09:25:56;;;;;;;10.10;8.70;;;9.00;35.20;;;;;;649843;219;26533;-64
2022/03/21 09:28:23;;;;;;;8.93;8.02;;;9.00;35.60;;;;;;639496;224;26769;-63
2022/03/21 09:30:50;;;;;;;11.00;10.00;;;9.20;35.30;;;;;;651094;221;26498;-63
2022/03/21 09:33:18;;;;;;;11.23;10.05;;;9.20;34.90;;;;;;638624;225;26726;-60
2022/03/21 09:35:47;;;;;;;12.10;10.70;;;9.10;35.00;;;;;;650673;221;26588;-63
2022/03/21 09:38:12;;;;;;;11.35;10.18;;;9.20;35.20;;;;;;626415;229;27071;-63
2022/03/21 09:40:41;;;;;;;11.50;10.30;;;9.30;34.70;;;;;;650500;221;26580;-63
2022/03/21 09:43:07;;;;;;;11.02;9.93;;;9.20;34.70;;;;;;638270;225;26510;-62
2022/03/21 09:45:34;;;;;;;10.95;9.85;;;9.30;35.00;;;;;;650210;221;26766;-62
2022/03/21 09:48:08;;;;;;;10.85;9.75;;;9.70;35.00;;;;;;638043;225;26458;-63
2022/03/21 09:50:36;;;;;;;11.48;10.43;;;10.00;33.50;;;;;;650107;221;26523;-62
2022/03/21 09:53:03;;;;;;;12.85;9.50;;;9.70;34.40;;;;;;626171;229;26516;-63
2022/03/21 09:55:31;;;;;;;10.90;9.90;;;9.60;34.50;;;;;;650056;221;26508;-63
2022/03/21 09:58:00;;;;;;;11.20;9.95;;;9.60;34.60;;;;;;626219;230;26550;-63
2022/03/21 10:00:27;;;;;;;10.88;9.77;;;9.60;34.60;;;;;;650140;221;26480;-61
2022/03/21 10:02:54;;;;;;;10.75;9.68;;;9.60;34.60;;;;;;637915;225;26720;-63
2022/03/21 10:05:29;;;;;;;10.82;9.80;;;9.60;34.50;;;;;;649717;221;26551;-61
2022/03/21 10:08:08;;;;;;;10.55;9.55;;;9.60;34.60;;;;;;637725;225;26730;-63
2022/03/21 10:10:35;;;;;;;10.85;9.75;;;9.70;34.60;;;;;;649847;221;26759;-62
2022/03/21 10:13:03;;;;;;;10.13;9.20;;;9.70;34.70;;;;;;637739;225;26551;-63
2022/03/21 10:15:30;;;;;;;10.00;9.00;;;9.70;34.60;;;;;;649817;221;26912;-62
2022/03/21 10:18:05;;;;;;;10.13;9.13;;;9.80;35.20;;;;;;637699;225;26528;-62
2022/03/21 10:20:32;;;;;;;10.38;9.35;;;9.90;34.70;;;;;;649834;221;27070;-61
2022/03/21 10:23:16;;;;;;;10.50;9.43;;;9.90;34.50;;;;;;637624;225;26508;-62
2022/03/21 10:25:42;;;;;;;10.80;9.70;;;9.80;34.50;;;;;;637653;225;26555;-61
2022/03/21 10:28:09;;;;;;;10.07;9.07;;;9.90;34.50;;;;;;649808;221;26738;-63
2022/03/21 10:30:44;;;;;;;10.40;9.40;;;9.90;34.40;;;;;;637755;225;26537;-61
2022/03/21 10:33:10;;;;;;;9.73;8.82;;;10.00;33.60;;;;;;650099;221;26534;-62
2022/03/21 10:35:46;;;;;;;9.70;8.80;;;10.10;33.50;;;;;;638084;225;26734;-60
2022/03/21 10:38:12;;;;;;;9.77;8.70;;;10.10;33.20;;;;;;650996;219;26544;-62
2022/03/21 10:40:43;;;;;;;9.43;8.43;;;10.20;32.90;;;;;;639634;225;26430;-62
2022/03/21 10:43:14;;;;;;;10.10;9.10;;;10.30;32.60;;;;;;651081;221;26512;-62
2022/03/21 10:45:41;;;;;;;11.48;8.90;;;10.40;32.70;;;;;;639028;225;26477;-62
2022/03/21 10:48:10;;;;;;;9.50;8.60;;;10.40;32.60;;;;;;650888;221;26533;-62
2022/03/21 10:50:40;;;;;;;9.93;8.93;;;10.50;32.20;;;;;;626598;229;26540;-63
2022/03/21 10:53:08;;;;;;;9.80;8.88;;;10.50;32.10;;;;;;650763;221;26759;-61
2022/03/21 10:55:35;;;;;;;9.60;8.65;;;10.50;32.20;;;;;;638268;225;26527;-62
2022/03/21 10:58:03;;;;;;;9.35;8.50;;;10.60;32.20;;;;;;650189;221;26743;-62
2022/03/21 11:00:30;;;;;;;10.32;9.30;;;10.70;32.40;;;;;;638023;225;26448;-60
2022/03/21 11:03:03;;;;;;;9.90;9.00;;;10.80;32.10;;;;;;650163;221;26516;-61
2022/03/21 11:05:31;;;;;;;8.35;7.57;;;10.70;32.10;;;;;;637827;225;26452;-62
2022/03/21 11:07:58;;;;;;;8.88;7.97;;;10.80;32.20;;;;;;650141;221;26508;-62
2022/03/21 11:10:26;;;;;;;9.60;8.60;;;10.80;32.10;;;;;;626176;228;27316;-64
2022/03/21 11:12:55;;;;;;;9.35;8.45;;;10.80;32.30;;;;;;650089;221;26507;-63
2022/03/21 11:15:23;;;;;;;9.77;8.88;;;10.80;32.30;;;;;;637736;225;26747;-62
2022/03/21 11:17:50;;;;;;;9.40;8.07;;;10.90;32.30;;;;;;649739;221;26514;-61
2022/03/21 11:20:17;;;;;;;11.18;7.78;;;11.00;32.50;;;;;;625908;230;26753;-62
2022/03/21 11:22:44;;;;;;;17.02;9.15;;;11.00;32.30;;;;;;649770;221;26510;-62
2022/03/21 11:25:11;;;;;;;11.75;8.07;;;11.10;32.30;;;;;;637715;225;26714;-64
2022/03/21 11:27:43;;;;;;;12.90;8.18;;;11.10;32.40;;;;;;649811;221;26558;-63
2022/03/21 11:30:11;;;;;;;12.02;7.53;;;11.20;32.10;;;;;;637318;225;26562;-64
2022/03/21 11:32:57;;;;;;;14.52;8.32;;;11.30;32.30;;;;;;649738;221;26515;-61
2022/03/21 11:35:24;;;;;;;10.90;8.10;;;11.20;32.00;;;;;;628898;225;26546;-61
2022/03/21 11:37:53;;;;;;;10.77;8.13;;;11.30;31.90;;;;;;649790;221;26779;-63
2022/03/21 11:40:35;;;;;;;9.68;7.93;;;11.40;31.60;;;;;;637792;225;26491;-62
2022/03/21 11:43:29;;;;;;;9.60;7.70;;;11.40;31.60;;;;;;649663;221;26623;-65
2022/03/21 11:45:57;;;;;;;8.00;7.22;;;11.60;31.40;;;;;;637599;225;26539;-65
2022/03/21 11:48:32;;;;;;;8.57;7.78;;;11.60;31.20;;;;;;649803;221;26558;-66
2022/03/21 11:51:22;;;;;;;7.95;7.15;;;11.60;31.20;;;;;;639234;223;26724;-68
2022/03/21 11:53:50;;;;;;;7.82;7.12;;;11.70;31.40;;;;;;650872;221;26767;-67
2022/03/21 11:56:17;;;;;;;9.65;7.30;;;11.90;31.00;;;;;;638392;225;26503;-66
2022/03/21 11:58:45;;;;;;;8.32;7.53;;;11.80;30.90;;;;;;650392;221;26572;-66
2022/03/21 12:01:13;;;;;;;7.78;7.07;;;11.90;30.80;;;;;;626450;229;27115;-66
2022/03/21 12:03:43;;;;;;;7.50;6.90;;;12.10;30.10;;;;;;650296;221;26597;-67
2022/03/21 12:06:27;;;;;;;7.85;7.15;;;12.10;30.30;;;;;;638608;225;26529;-68
2022/03/21 12:08:54;;;;;;;7.68;6.97;;;12.10;30.70;;;;;;650586;221;26517;-66
2022/03/21 12:11:54;;;;;;;8.70;7.18;;;12.10;29.80;;;;;;638173;225;26669;-66
2022/03/21 12:14:23;;;;;;;7.37;6.65;;;12.20;29.70;;;;;;647723;221;26508;-67
2022/03/21 12:17:15;;;;;;;6.57;6.00;;;12.30;29.70;;;;;;626298;229;26836;-67
2022/03/21 12:20:02;;;;;;;6.80;6.20;;;12.40;29.40;;;;;;649983;221;26528;-67
2022/03/21 12:22:37;;;;;;;7.75;6.10;;;12.40;29.40;;;;;;638058;225;26454;-69
2022/03/21 12:25:10;;;;;;;6.62;6.03;;;12.50;29.10;;;;;;650043;221;26798;-66
2022/03/21 12:27:43;;;;;;;6.40;5.80;;;12.50;28.90;;;;;;637786;225;26523;-67
2022/03/21 12:30:35;;;;;;;7.00;6.18;;;12.50;28.80;;;;;;649775;221;26557;-67
2022/03/21 12:33:05;;;;;;;6.40;5.80;;;12.50;28.80;;;;;;637548;225;26734;-66
2022/03/21 12:35:52;;;;;;;7.18;6.40;;;12.60;29.00;;;;;;648300;221;26610;-67
2022/03/21 12:38:22;;;;;;;6.97;6.25;;;12.70;28.90;;;;;;637552;225;27289;-66
2022/03/21 12:40:53;;;;;;;7.12;6.43;;;12.70;29.00;;;;;;649646;221;26574;-66
2022/03/21 12:43:20;;;;;;;7.30;6.40;;;12.80;29.30;;;;;;637649;225;26488;-67
2022/03/21 12:45:49;;;;;;;5.82;5.32;;;12.80;29.40;;;;;;649854;221;26598;-68
2022/03/21 12:48:17;;;;;;;6.47;5.87;;;12.80;29.20;;;;;;637817;225;26775;-66
2022/03/21 12:50:42;;;;;;;6.30;5.70;;;12.90;29.50;;;;;;649713;221;26510;-67
2022/03/21 12:53:09;;;;;;;6.10;5.60;;;12.90;29.50;;;;;;625944;230;26807;-66
2022/03/21 12:55:37;;;;;;;6.30;5.80;;;12.90;29.60;;;;;;649737;221;26542;-67
2022/03/21 12:58:05;;;;;;;5.87;5.35;;;12.90;29.50;;;;;;637704;225;26755;-66
2022/03/21 13:00:34;;;;;;;6.10;5.60;;;12.90;29.50;;;;;;649764;221;26577;-66
2022/03/21 13:03:20;;;;;;;6.32;5.82;;;13.00;29.70;;;;;;627620;227;26816;-66
2022/03/21 13:10:54;;;;;;;6.07;5.35;;;13.00;29.40;;;;;;650599;221;26575;-67
2022/03/21 13:13:20;;;;;;;6.22;5.72;;;13.00;29.60;;;;;;638293;225;26870;-66
2022/03/21 13:15:47;;;;;;;6.85;6.22;;;13.00;29.20;;;;;;650419;221;26573;-66
2022/03/21 13:18:15;;;;;;;6.43;5.82;;;13.10;29.50;;;;;;649171;221;26791;-66
2022/03/21 13:20:46;;;;;;;5.82;5.37;;;13.10;29.40;;;;;;650177;221;26545;-66
2022/03/21 13:23:11;;;;;;;6.05;5.55;;;13.20;29.50;;;;;;649806;221;27002;-65